Terminal Aerodrome Forecast
Issued by NWS

Home | Current Version | Previous Version | Text Only | Print | Product List | Glossary On
Versions: 1 2 3 4 5 6 7 8 9 10 11 12 13 14 15 16 17 18 19 20 21 22 23 24 25 26
000
FTUS45 KGGW 022300
TAFGDV
TAF
KGDV 022320Z 0300/0324 31018KT P6SM VCSH BKN040 BKN080
     FM030600 35022G30KT P6SM BKN027 BKN040
     FM032100 32022G31KT P6SM BKN045
      AMD LTD TO CLD VIS AND WIND=

USA.gov is the U.S. government's official web portal to all federal, state and local government web resources and services.